createdAt,value
2018-08-09T00:01:41.307Z,6.10
2018-08-09T00:04:11.238Z,6.80
2018-08-09T00:06:41.953Z,7.77
2018-08-09T00:09:12.207Z,8.47
2018-08-09T00:11:42.476Z,6.53
2018-08-09T00:14:13.651Z,6.97
2018-08-09T00:16:43.565Z,6.47
2018-08-09T00:19:13.825Z,7.40
2018-08-09T00:21:44.828Z,7.47
2018-08-09T00:24:16.497Z,7.07
2018-08-09T00:26:46.244Z,6.17
2018-08-09T00:29:16.721Z,7.67
2018-08-09T00:31:47.066Z,7.53
2018-08-09T00:34:18.372Z,7.27
2018-08-09T00:36:49.822Z,8.10
2018-08-09T00:39:20.107Z,7.57
2018-08-09T00:41:50.238Z,7.70
2018-08-09T00:44:20.388Z,8.17
2018-08-09T00:46:51.713Z,7.70
2018-08-09T00:49:22.326Z,7.17
2018-08-09T00:51:52.598Z,6.47
2018-08-09T00:54:23.009Z,6.57
2018-08-09T00:56:53.164Z,6.70
2018-08-09T00:59:23.149Z,7.50
2018-08-09T01:01:53.549Z,7.23
2018-08-09T01:04:24.462Z,7.17
2018-08-09T01:06:54.377Z,7.80
2018-08-09T01:09:24.970Z,9.17
2018-08-09T01:11:56.529Z,7.10
2018-08-09T01:14:26.933Z,6.80
2018-08-09T01:16:56.737Z,6.70
2018-08-09T01:19:27.825Z,8.33
2018-08-09T01:21:58.499Z,7.10
2018-08-09T01:24:29.313Z,7.20
2018-08-09T01:27:00.909Z,6.67
2018-08-09T01:29:31.168Z,6.97
2018-08-09T01:32:01.865Z,8.17
2018-08-09T01:34:32.084Z,7.57
2018-08-09T01:37:02.128Z,7.70
2018-08-09T01:39:32.888Z,7.23
2018-08-09T01:42:14.673Z,7.77
2018-08-09T01:44:44.893Z,6.80
2018-08-09T01:47:16.023Z,9.50
2018-08-09T01:49:45.806Z,7.47
2018-08-09T01:52:16.063Z,7.17
2018-08-09T01:54:46.064Z,6.97
2018-08-09T01:57:16.740Z,7.43
2018-08-09T01:59:47.154Z,6.67
2018-08-09T02:02:17.203Z,8.13
2018-08-09T02:04:47.085Z,8.33
2018-08-09T02:07:17.659Z,7.60
2018-08-09T02:09:48.420Z,13.53
2018-08-09T02:12:18.188Z,7.50
2018-08-09T02:14:48.496Z,7.70
2018-08-09T02:17:18.787Z,6.97
2018-08-09T02:19:49.588Z,8.00
2018-08-09T02:22:20.179Z,8.17
2018-08-09T02:24:50.529Z,7.83
2018-08-09T02:27:20.660Z,7.23
2018-08-09T02:29:50.981Z,7.80
2018-08-09T02:32:21.476Z,8.30
2018-08-09T02:34:52.750Z,7.17
2018-08-09T02:37:22.443Z,7.80
2018-08-09T02:39:52.937Z,7.57
2018-08-09T02:42:23.829Z,8.40
2018-08-09T02:44:54.574Z,8.13
2018-08-09T02:47:24.791Z,8.17
2018-08-09T02:49:55.401Z,8.47
2018-08-09T02:52:25.931Z,8.43
2018-08-09T02:54:56.510Z,10.00
2018-08-09T02:57:27.381Z,8.73
2018-08-09T02:59:58.516Z,7.70
2018-08-09T03:02:29.640Z,9.17
2018-08-09T03:05:01.209Z,7.47
2018-08-09T03:07:32.903Z,8.00
2018-08-09T03:10:04.702Z,10.10
2018-08-09T03:12:34.784Z,8.43
2018-08-09T03:15:05.364Z,8.17
2018-08-09T03:17:35.908Z,7.23
2018-08-09T03:20:05.873Z,6.50
2018-08-09T03:22:35.973Z,8.83
2018-08-09T03:25:06.484Z,10.30
2018-08-09T03:27:37.199Z,7.17
2018-08-09T03:30:08.298Z,8.30
2018-08-09T03:32:38.701Z,7.57
2018-08-09T03:35:08.726Z,7.73
2018-08-09T03:37:38.778Z,8.97
2018-08-09T03:40:08.915Z,11.20
2018-08-09T03:42:39.891Z,8.50
2018-08-09T03:45:10.361Z,7.20
2018-08-09T03:47:40.594Z,7.50
2018-08-09T03:50:10.497Z,8.07
2018-08-09T03:52:40.318Z,8.37
2018-08-09T03:55:12.028Z,8.20
2018-08-09T03:57:41.938Z,8.20
2018-08-09T04:00:11.847Z,7.43
2018-08-09T04:02:41.513Z,7.97
2018-08-09T04:05:11.539Z,7.43
2018-08-09T04:07:42.089Z,8.80
2018-08-09T04:10:12.102Z,8.10
2018-08-09T04:12:42.396Z,8.07
2018-08-09T04:15:13.292Z,9.13
2018-08-09T04:17:43.183Z,8.57
2018-08-09T04:20:12.906Z,8.03
2018-08-09T04:22:43.285Z,7.63
2018-08-09T04:25:12.943Z,7.53
2018-08-09T04:27:42.658Z,7.80
2018-08-09T04:30:14.355Z,8.23
2018-08-09T04:32:44.234Z,8.40
2018-08-09T04:35:14.239Z,7.83
2018-08-09T04:37:44.616Z,8.50
2018-08-09T04:40:14.744Z,8.50
2018-08-09T04:43:47.899Z,8.47
2018-08-09T04:46:19.938Z,8.00
2018-08-09T04:48:50.553Z,8.77
2018-08-09T04:51:20.686Z,7.77
2018-08-09T04:53:50.550Z,8.50
2018-08-09T04:56:20.600Z,7.83
2018-08-09T04:58:51.390Z,6.93
2018-08-09T05:01:23.659Z,7.77
2018-08-09T05:03:53.775Z,9.23
2018-08-09T05:06:23.927Z,7.87
2018-08-09T05:08:54.322Z,7.53
2018-08-09T05:11:24.083Z,6.80
2018-08-09T05:13:54.217Z,7.60
2018-08-09T05:16:25.165Z,7.30
2018-08-09T05:18:55.460Z,9.03
2018-08-09T05:21:25.208Z,9.80
2018-08-09T05:23:55.220Z,7.80
2018-08-09T05:26:26.025Z,8.43
2018-08-09T05:28:56.346Z,8.53
2018-08-09T05:31:27.217Z,7.77
2018-08-09T05:33:57.371Z,7.70
2018-08-09T05:36:27.682Z,7.77
2018-08-09T05:38:58.275Z,8.70
2018-08-09T05:41:28.629Z,8.00
2018-08-09T05:43:58.511Z,8.00
2018-08-09T05:46:29.139Z,9.23
2018-08-09T05:48:59.386Z,8.50
2018-08-09T05:51:29.414Z,8.90
2018-08-09T05:54:00.284Z,9.40
2018-08-09T05:56:30.741Z,8.77
2018-08-09T05:59:00.781Z,9.43
2018-08-09T06:01:31.086Z,11.20
2018-08-09T06:04:01.984Z,12.00
2018-08-09T06:06:32.651Z,10.70
2018-08-09T06:09:03.601Z,10.37
2018-08-09T06:11:33.577Z,10.57
2018-08-09T06:14:04.371Z,10.43
2018-08-09T06:16:35.165Z,10.40
2018-08-09T06:19:06.226Z,12.10
2018-08-09T06:21:36.254Z,11.17
2018-08-09T06:24:06.600Z,10.27
2018-08-09T06:26:37.401Z,11.10
2018-08-09T06:29:07.748Z,11.80
2018-08-09T06:31:38.884Z,13.23
2018-08-09T06:34:09.045Z,10.90
2018-08-09T06:36:38.869Z,11.27
2018-08-09T06:39:10.549Z,11.40
2018-08-09T06:41:44.173Z,10.63
2018-08-09T06:44:14.533Z,11.60
2018-08-09T06:46:46.713Z,10.43
2018-08-09T06:49:17.326Z,9.47
2018-08-09T06:52:52.445Z,12.17
2018-08-09T06:55:23.655Z,12.67
2018-08-09T06:57:53.630Z,10.73
2018-08-09T07:00:23.866Z,9.90
2018-08-09T07:02:54.324Z,10.93
2018-08-09T07:05:25.714Z,10.73
2018-08-09T07:07:55.571Z,9.87
2018-08-09T07:10:26.870Z,11.27
2018-08-09T07:12:56.965Z,10.13
2018-08-09T07:15:27.272Z,10.00
2018-08-09T07:17:57.301Z,10.60
2018-08-09T07:20:27.680Z,10.50
2018-08-09T07:22:58.787Z,9.40
2018-08-09T07:25:28.847Z,8.80
2018-08-09T07:27:59.108Z,8.17
2018-08-09T07:30:29.028Z,9.20
2018-08-09T07:33:00.100Z,9.17
2018-08-09T07:35:30.372Z,8.80
2018-08-09T07:38:01.701Z,11.20
2018-08-09T07:42:54.387Z,9.57
2018-08-09T07:45:25.680Z,9.50
2018-08-09T07:47:56.489Z,9.13
2018-08-09T07:50:27.576Z,9.50
2018-08-09T07:52:57.415Z,9.43
2018-08-09T07:55:27.334Z,9.23
2018-08-09T07:57:57.734Z,10.17
2018-08-09T08:00:29.558Z,9.10
2018-08-09T08:02:59.779Z,8.60
2018-08-09T08:05:30.278Z,10.27
2018-08-09T08:08:00.476Z,9.70
2018-08-09T08:10:32.424Z,8.87
2018-08-09T08:13:04.020Z,7.93
2018-08-09T08:15:34.375Z,8.20
2018-08-09T08:18:05.535Z,10.07
2018-08-09T08:20:36.246Z,7.77
2018-08-09T08:23:08.164Z,9.83
2018-08-09T08:25:38.408Z,8.00
2018-08-09T08:28:11.372Z,13.23
2018-08-09T08:30:41.364Z,8.83
2018-08-09T08:33:17.025Z,9.10
2018-08-09T08:35:50.314Z,7.87
2018-08-09T08:38:20.695Z,8.27
2018-08-09T08:40:51.400Z,12.47
2018-08-09T08:43:22.817Z,10.97
2018-08-09T08:45:53.039Z,8.97
2018-08-09T08:48:23.571Z,10.40
2018-08-09T08:50:56.275Z,9.90
2018-08-09T08:53:29.058Z,10.37
2018-08-09T08:55:59.716Z,8.70
2018-08-09T08:58:30.578Z,8.50
2018-08-09T09:01:01.713Z,8.60
2018-08-09T09:03:32.652Z,12.70
2018-08-09T09:06:03.738Z,8.73
2018-08-09T09:08:34.021Z,8.13
2018-08-09T09:11:05.099Z,10.17
2018-08-09T09:13:34.969Z,9.20
2018-08-09T09:16:05.186Z,9.80
2018-08-09T09:18:35.642Z,8.97
2018-08-09T09:21:05.755Z,8.87
2018-08-09T09:23:36.092Z,8.63
2018-08-09T09:26:07.631Z,10.20
2018-08-09T09:28:37.753Z,9.33
2018-08-09T09:31:08.323Z,8.77
2018-08-09T09:33:39.391Z,9.90
2018-08-09T09:36:10.917Z,8.87
2018-08-09T09:38:40.926Z,7.40
2018-08-09T09:41:12.816Z,10.77
2018-08-09T09:43:43.169Z,8.80
2018-08-09T09:46:14.123Z,7.83
2018-08-09T09:48:44.137Z,8.90
2018-08-09T09:51:14.670Z,9.37
2018-08-09T09:53:45.581Z,8.40
2018-08-09T09:56:19.541Z,10.40
2018-08-09T09:58:50.736Z,8.73
2018-08-09T10:01:27.298Z,8.00
2018-08-09T10:04:00.220Z,7.60
2018-08-09T10:06:33.955Z,8.20
2018-08-09T10:09:06.181Z,8.30
2018-08-09T10:11:37.770Z,9.40
2018-08-09T10:14:08.355Z,8.70
2018-08-09T10:16:39.720Z,10.43
2018-08-09T10:19:10.722Z,8.00
2018-08-09T10:21:41.492Z,8.30
2018-08-09T10:24:14.276Z,8.40
2018-08-09T10:26:44.754Z,8.20
2018-08-09T10:29:15.314Z,7.23
2018-08-09T10:31:45.833Z,8.73
2018-08-09T10:34:15.889Z,7.40
2018-08-09T10:36:45.856Z,8.43
2018-08-09T10:39:17.180Z,7.40
2018-08-09T10:41:47.913Z,7.13
2018-08-09T10:44:20.271Z,7.60
2018-08-09T10:46:51.645Z,7.50
2018-08-09T10:49:21.765Z,6.70
2018-08-09T10:51:52.669Z,7.53
2018-08-09T10:54:25.257Z,6.23
2018-08-09T10:56:55.757Z,6.53
2018-08-09T10:59:31.261Z,6.53
2018-08-09T11:02:05.169Z,6.63
2018-08-09T11:04:36.836Z,8.20
2018-08-09T11:07:08.365Z,6.40
2018-08-09T11:09:40.454Z,7.13
2018-08-09T11:12:10.921Z,6.50
2018-08-09T11:14:45.365Z,6.97
2018-08-09T11:17:20.997Z,7.50
2018-08-09T11:19:55.627Z,6.07
2018-08-09T11:22:29.389Z,7.90
2018-08-09T11:25:00.683Z,6.43
2018-08-09T11:27:31.168Z,6.20
2018-08-09T11:30:09.525Z,7.30
2018-08-09T11:32:39.636Z,5.93
2018-08-09T11:35:12.724Z,8.53
2018-08-09T11:37:43.077Z,5.50
2018-08-09T11:40:14.241Z,6.07
2018-08-09T11:42:44.916Z,5.70
2018-08-09T11:45:17.673Z,6.47
2018-08-09T11:47:49.027Z,7.70
2018-08-09T11:50:21.712Z,5.80
2018-08-09T11:52:53.387Z,6.40
2018-08-09T11:55:23.860Z,6.20
2018-08-09T11:57:59.859Z,6.27
2018-08-09T12:00:31.056Z,6.87
2018-08-09T12:03:04.262Z,6.03
2018-08-09T12:05:35.500Z,5.67
2018-08-09T12:08:06.906Z,5.63
2018-08-09T12:10:38.340Z,6.63
2018-08-09T12:13:09.002Z,5.03
2018-08-09T12:15:39.229Z,5.57
2018-08-09T12:18:10.389Z,5.83
2018-08-09T12:20:42.351Z,7.70
2018-08-09T12:23:13.504Z,7.47
2018-08-09T12:25:44.238Z,6.67
2018-08-09T12:28:14.591Z,5.70
2018-08-09T12:30:44.381Z,5.73
2018-08-09T12:33:14.456Z,5.50
2018-08-09T12:35:45.585Z,9.43
2018-08-09T12:38:15.986Z,5.95
2018-08-09T12:40:46.523Z,5.67
2018-08-09T12:43:16.584Z,5.12
2018-08-09T12:45:47.602Z,4.95
2018-08-09T12:48:17.730Z,8.38
2018-08-09T12:50:48.297Z,6.17
2018-08-09T12:53:19.494Z,6.55
2018-08-09T12:55:49.560Z,6.85
2018-08-09T12:58:19.628Z,4.80
2018-08-09T13:00:57.669Z,8.33
2018-08-09T13:03:36.333Z,5.47
2018-08-09T13:06:10.266Z,4.47
2018-08-09T13:08:43.087Z,6.20
2018-08-09T13:11:18.387Z,6.20
2018-08-09T13:13:56.959Z,4.80
2018-08-09T13:16:35.539Z,4.70
2018-08-09T13:19:06.965Z,6.60
2018-08-09T13:21:42.072Z,6.23
2018-08-09T13:24:15.374Z,4.37
2018-08-09T13:26:50.933Z,5.10
2018-08-09T13:29:22.906Z,5.30
2018-08-09T13:31:54.332Z,5.60
2018-08-09T13:34:31.253Z,6.33
2018-08-09T13:37:03.095Z,4.28
2018-08-09T13:39:37.441Z,5.30
2018-08-09T13:42:10.247Z,4.37
2018-08-09T13:44:47.339Z,4.95
2018-08-09T13:47:19.994Z,4.25
2018-08-09T13:50:03.954Z,5.07
2018-08-09T13:52:37.935Z,6.03
2018-08-09T13:55:14.716Z,6.87
2018-08-09T13:57:55.469Z,6.10
2018-08-09T14:00:32.109Z,6.47
2018-08-09T14:03:02.726Z,5.22
2018-08-09T14:05:38.226Z,12.82
2018-08-09T14:08:10.123Z,8.13
2018-08-09T14:10:47.670Z,12.43
2018-08-09T14:13:19.834Z,4.53
2018-08-09T14:15:53.057Z,3.95
2018-08-09T14:18:24.852Z,4.45
2018-08-09T14:20:56.605Z,4.42
2018-08-09T14:23:28.551Z,4.92
2018-08-09T14:25:58.672Z,4.30
2018-08-09T14:28:30.067Z,4.53
2018-08-09T14:31:01.150Z,4.47
2018-08-09T14:33:32.954Z,4.22
2018-08-09T14:36:08.652Z,4.53
2018-08-09T14:38:46.068Z,4.92
2018-08-09T14:41:17.194Z,4.97
2018-08-09T14:43:47.549Z,4.17
2018-08-09T14:46:19.269Z,4.25
2018-08-09T14:48:50.254Z,4.45
2018-08-09T14:51:21.077Z,4.42
2018-08-09T14:53:51.876Z,4.83
2018-08-09T14:56:22.115Z,4.55
2018-08-09T14:58:52.082Z,4.20
2018-08-09T15:01:23.985Z,5.03
2018-08-09T15:03:55.012Z,7.45
2018-08-09T15:06:26.930Z,4.92
2018-08-09T15:08:59.115Z,4.92
2018-08-09T15:11:31.322Z,4.60
2018-08-09T15:14:06.929Z,7.90
2018-08-09T15:16:37.712Z,4.50
2018-08-09T15:19:08.918Z,4.55
2018-08-09T15:21:43.553Z,4.37
2018-08-09T15:24:14.360Z,3.90
2018-08-09T15:26:45.754Z,4.72
2018-08-09T15:29:15.671Z,3.90
2018-08-09T15:31:47.759Z,4.40
2018-08-09T15:34:20.040Z,4.65
2018-08-09T15:36:50.465Z,9.65
2018-08-09T15:39:21.574Z,4.45
2018-08-09T15:41:51.596Z,5.15
2018-08-09T15:44:22.501Z,4.00
2018-08-09T15:46:53.291Z,4.75
2018-08-09T15:49:23.351Z,5.28
2018-08-09T15:51:54.147Z,4.40
2018-08-09T15:54:25.044Z,4.60
2018-08-09T15:56:56.791Z,4.22
2018-08-09T15:59:27.117Z,5.13
2018-08-09T16:01:58.589Z,6.00
2018-08-09T16:04:29.871Z,4.20
2018-08-09T16:07:00.537Z,4.00
2018-08-09T16:09:31.924Z,5.10
2018-08-09T16:12:03.035Z,4.70
2018-08-09T16:14:33.722Z,5.30
2018-08-09T16:17:05.609Z,6.50
2018-08-09T16:19:35.418Z,5.30
2018-08-09T16:22:05.531Z,9.37
2018-08-09T16:24:35.650Z,8.13
2018-08-09T16:27:05.727Z,6.20
2018-08-09T16:29:35.773Z,5.10
2018-08-09T16:32:05.976Z,5.13
2018-08-09T16:34:36.222Z,6.67
2018-08-09T16:37:06.575Z,5.00
2018-08-09T16:39:36.575Z,5.40
2018-08-09T16:42:06.659Z,7.33
2018-08-09T16:44:36.582Z,8.80
2018-08-09T16:47:06.804Z,5.50
2018-08-09T16:49:36.625Z,5.23
2018-08-09T16:52:07.796Z,9.33
2018-08-09T16:54:37.672Z,6.13
2018-08-09T16:57:07.768Z,5.00
2018-08-09T16:59:38.091Z,9.20
2018-08-09T17:02:08.603Z,5.03
2018-08-09T17:04:38.459Z,5.80
2018-08-09T17:07:08.664Z,4.60
2018-08-09T17:09:38.975Z,5.43
2018-08-09T17:12:09.995Z,8.67
2018-08-09T17:14:39.953Z,4.77
2018-08-09T17:17:10.111Z,4.60
2018-08-09T17:19:40.400Z,6.33
2018-08-09T17:22:10.543Z,3.97
2018-08-09T17:24:40.656Z,5.83
2018-08-09T17:27:10.681Z,5.00
2018-08-09T17:29:40.784Z,5.23
2018-08-09T17:32:11.328Z,4.97
2018-08-09T17:34:41.796Z,5.10
2018-08-09T17:37:11.856Z,9.80
2018-08-09T17:39:45.804Z,6.30
2018-08-09T17:42:16.679Z,5.00
2018-08-09T17:44:46.798Z,4.40
2018-08-09T17:47:17.777Z,4.50
2018-08-09T17:49:47.774Z,4.87
2018-08-09T17:52:17.748Z,6.03
2018-08-09T17:54:47.783Z,4.80
2018-08-09T17:57:17.772Z,4.87
2018-08-09T17:59:48.370Z,5.23
2018-08-09T18:02:20.629Z,5.20
2018-08-09T18:04:51.002Z,5.03
2018-08-09T18:07:21.017Z,8.73
2018-08-09T18:09:51.045Z,4.90
2018-08-09T18:12:21.878Z,6.43
2018-08-09T18:14:52.123Z,6.07
2018-08-09T18:17:22.361Z,4.57
2018-08-09T18:19:52.485Z,5.10
2018-08-09T18:22:24.124Z,4.83
2018-08-09T18:24:54.023Z,6.73
2018-08-09T18:27:25.323Z,8.90
2018-08-09T18:29:55.411Z,4.83
2018-08-09T18:32:29.557Z,14.93
2018-08-09T18:35:00.601Z,4.87
2018-08-09T18:37:31.192Z,4.60
2018-08-09T18:40:02.104Z,5.10
2018-08-09T18:42:33.427Z,5.63
2018-08-09T18:45:04.526Z,4.73
2018-08-09T18:47:35.995Z,5.37
2018-08-09T18:50:10.774Z,4.53
2018-08-09T18:52:42.259Z,5.63
2018-08-09T18:55:12.727Z,5.50
2018-08-09T18:57:44.097Z,5.80
2018-08-09T19:00:21.814Z,4.07
2018-08-09T19:02:52.638Z,4.53
2018-08-09T19:05:24.366Z,4.40
2018-08-09T19:07:55.703Z,3.70
2018-08-09T19:10:30.437Z,6.70
2018-08-09T19:13:00.496Z,4.40
2018-08-09T19:15:30.572Z,4.13
2018-08-09T19:18:02.328Z,5.07
2018-08-09T19:20:33.917Z,4.27
2018-08-09T19:23:04.988Z,4.00
2018-08-09T19:25:37.258Z,3.60
2018-08-09T19:28:08.004Z,4.17
2018-08-09T19:30:38.555Z,3.70
2018-08-09T19:33:09.535Z,3.77
2018-08-09T19:35:39.491Z,4.07
2018-08-09T19:38:10.773Z,3.70
2018-08-09T19:40:41.109Z,3.97
2018-08-09T19:43:10.901Z,4.00
2018-08-09T19:45:41.371Z,3.80
2018-08-09T19:48:11.498Z,4.57
2018-08-09T19:50:43.644Z,4.30
2018-08-09T19:53:14.140Z,3.90
2018-08-09T19:55:44.060Z,3.40
2018-08-09T19:58:14.477Z,3.97
2018-08-09T20:00:45.011Z,3.90
2018-08-09T20:03:16.749Z,3.87
2018-08-09T20:05:46.651Z,4.00
2018-08-09T20:08:17.580Z,7.03
2018-08-09T20:10:48.079Z,3.80
2018-08-09T20:13:19.302Z,3.70
2018-08-09T20:15:50.178Z,3.37
2018-08-09T20:18:21.106Z,4.63
2018-08-09T20:20:51.168Z,3.70
2018-08-09T20:23:23.261Z,4.27
2018-08-09T20:25:53.152Z,3.53
2018-08-09T20:28:23.485Z,4.00
2018-08-09T20:30:53.819Z,4.07
2018-08-09T20:33:25.977Z,6.20
2018-08-09T20:35:56.305Z,4.03
2018-08-09T20:38:27.204Z,4.13
2018-08-09T20:40:57.682Z,4.20
2018-08-09T20:43:28.540Z,6.50
2018-08-09T20:46:01.117Z,7.50
2018-08-09T20:48:30.962Z,4.07
2018-08-09T20:51:02.950Z,3.47
2018-08-09T20:53:33.011Z,4.50
2018-08-09T20:56:03.663Z,3.50
2018-08-09T20:58:33.776Z,4.00
2018-08-09T21:01:03.730Z,3.70
2018-08-09T21:03:33.880Z,3.70
2018-08-09T21:08:10.257Z,3.07
2018-08-09T21:10:41.252Z,13.83
2018-08-09T21:13:12.721Z,4.70
2018-08-09T21:15:44.190Z,5.10
2018-08-09T21:18:16.564Z,3.97
2018-08-09T21:20:46.352Z,3.80
2018-08-09T21:23:16.535Z,4.10
2018-08-09T21:25:46.678Z,3.73
2018-08-09T21:28:18.303Z,4.23
2018-08-09T21:30:48.355Z,4.17
2018-08-09T21:33:18.916Z,4.03
2018-08-09T21:35:48.702Z,3.70
2018-08-09T21:38:19.006Z,3.83
2018-08-09T21:40:48.736Z,4.10
2018-08-09T21:43:20.385Z,9.10
2018-08-09T21:45:52.301Z,4.30
2018-08-09T21:48:22.676Z,4.37
2018-08-09T21:50:52.983Z,4.80
2018-08-09T21:53:23.337Z,3.43
2018-08-09T21:55:54.977Z,4.00
2018-08-09T21:58:27.498Z,4.30
2018-08-09T22:01:00.867Z,4.77
2018-08-09T22:03:34.116Z,5.63
2018-08-09T22:07:33.474Z,3.60
2018-08-09T22:10:10.286Z,4.50
2018-08-09T22:12:45.206Z,3.23
2018-08-09T22:15:20.481Z,4.43
2018-08-09T22:17:55.997Z,3.70
2018-08-09T22:20:32.627Z,7.00
2018-08-09T22:23:03.250Z,5.30
2018-08-09T22:25:33.314Z,3.57
2018-08-09T22:28:03.508Z,4.00
2018-08-09T22:30:33.315Z,4.50
2018-08-09T22:33:03.258Z,4.33
2018-08-09T22:35:33.548Z,4.83
2018-08-09T22:38:03.296Z,4.10
2018-08-09T22:40:35.005Z,3.90
2018-08-09T22:43:05.644Z,3.30
2018-08-09T22:45:35.659Z,5.70
2018-08-09T22:48:06.083Z,3.33
2018-08-09T22:50:36.905Z,3.77
2018-08-09T22:53:06.850Z,3.40
2018-08-09T22:55:37.185Z,3.63
2018-08-09T22:58:07.592Z,4.60
2018-08-09T23:00:38.168Z,4.83
2018-08-09T23:03:11.060Z,3.57
2018-08-09T23:05:42.416Z,4.17
2018-08-09T23:08:13.545Z,7.17
2018-08-09T23:10:44.176Z,2.73
2018-08-09T23:13:15.185Z,3.67
2018-08-09T23:15:46.278Z,3.50
2018-08-09T23:18:17.223Z,3.20
2018-08-09T23:20:47.413Z,2.83
2018-08-09T23:23:17.252Z,3.20
2018-08-09T23:25:46.980Z,3.47
2018-08-09T23:28:17.111Z,5.10
2018-08-09T23:30:47.934Z,2.80
2018-08-09T23:33:22.470Z,3.60
2018-08-09T23:35:53.221Z,3.40
2018-08-09T23:38:23.350Z,2.90
2018-08-09T23:40:53.777Z,4.53
2018-08-09T23:43:24.430Z,3.40
2018-08-09T23:45:55.929Z,3.63
2018-08-09T23:48:26.214Z,3.70
2018-08-09T23:50:56.364Z,2.90
2018-08-09T23:53:26.630Z,4.00
2018-08-09T23:55:56.656Z,2.53
2018-08-09T23:58:27.122Z,3.10
